sensor_id;sensor_type;location;lat;lon;timestamp;pressure;altitude;pressure_sealevel;temperature;humidity
26839;BME280;40088;51.214;6.786;2022-07-24T00:00:26;101677.72;;;21.51;66.24
26839;BME280;40088;51.214;6.786;2022-07-24T00:10:26;101674.09;;;21.50;65.96
26839;BME280;40088;51.214;6.786;2022-07-24T00:20:27;101662.13;;;21.50;66.07
26839;BME280;40088;51.214;6.786;2022-07-24T00:30:27;101666.63;;;21.51;65.98
26839;BME280;40088;51.214;6.786;2022-07-24T00:40:27;101657.47;;;21.50;66.14
26839;BME280;40088;51.214;6.786;2022-07-24T00:50:28;101659.34;;;21.50;65.90
26839;BME280;40088;51.214;6.786;2022-07-24T01:00:29;101671.31;;;21.50;65.90
26839;BME280;40088;51.214;6.786;2022-07-24T01:10:29;101664.88;;;21.50;66.12
26839;BME280;40088;51.214;6.786;2022-07-24T01:20:29;101656.56;;;21.50;65.69
26839;BME280;40088;51.214;6.786;2022-07-24T01:30:30;101662.13;;;21.50;65.79
26839;BME280;40088;51.214;6.786;2022-07-24T01:40:30;101650.16;;;21.49;66.02
26839;BME280;40088;51.214;6.786;2022-07-24T01:50:31;101646.53;;;21.49;65.94
26839;BME280;40088;51.214;6.786;2022-07-24T02:00:31;101637.38;;;21.48;65.81
26839;BME280;40088;51.214;6.786;2022-07-24T02:10:32;101637.38;;;21.48;65.67
26839;BME280;40088;51.214;6.786;2022-07-24T02:20:32;101646.53;;;21.49;65.98
26839;BME280;40088;51.214;6.786;2022-07-24T02:30:32;101634.59;;;21.48;65.78
26839;BME280;40088;51.214;6.786;2022-07-24T02:40:33;101622.66;;;21.48;65.95
26839;BME280;40088;51.214;6.786;2022-07-24T02:50:34;101623.50;;;21.48;65.88
26839;BME280;40088;51.214;6.786;2022-07-24T03:00:35;101622.66;;;21.48;65.58
26839;BME280;40088;51.214;6.786;2022-07-24T03:10:36;101621.81;;;21.47;65.49
26839;BME280;40088;51.214;6.786;2022-07-24T03:20:36;101617.09;;;21.48;65.85
26839;BME280;40088;51.214;6.786;2022-07-24T03:30:37;101610.72;;;21.47;65.75
26839;BME280;40088;51.214;6.786;2022-07-24T03:40:37;101621.81;;;21.47;65.75
26839;BME280;40088;51.214;6.786;2022-07-24T03:50:37;101620.94;;;21.47;65.66
26839;BME280;40088;51.214;6.786;2022-07-24T04:00:37;101637.59;;;21.47;65.82
26839;BME280;40088;51.214;6.786;2022-07-24T04:10:38;101637.59;;;21.47;65.35
26839;BME280;40088;51.214;6.786;2022-07-24T04:20:38;101633.09;;;21.46;65.73
26839;BME280;40088;51.214;6.786;2022-07-24T04:30:38;101636.72;;;21.46;65.37
26839;BME280;40088;51.214;6.786;2022-07-24T04:40:39;101633.97;;;21.46;65.35
26839;BME280;40088;51.214;6.786;2022-07-24T04:50:39;101626.72;;;21.45;65.74
26839;BME280;40088;51.214;6.786;2022-07-24T05:00:40;101617.50;;;21.45;65.31
26839;BME280;40088;51.214;6.786;2022-07-24T05:10:40;101616.47;;;21.46;65.46
26839;BME280;40088;51.214;6.786;2022-07-24T05:20:40;101619.25;;;21.46;65.59
26839;BME280;40088;51.214;6.786;2022-07-24T05:30:41;101625.81;;;21.45;65.67
26839;BME280;40088;51.214;6.786;2022-07-24T05:40:41;101652.53;;;21.46;65.47
26839;BME280;40088;51.214;6.786;2022-07-24T05:50:41;101652.53;;;21.46;65.50
26839;BME280;40088;51.214;6.786;2022-07-24T06:00:42;101659.97;;;21.45;65.72
26839;BME280;40088;51.214;6.786;2022-07-24T06:10:43;101659.97;;;21.45;65.74
26839;BME280;40088;51.214;6.786;2022-07-24T06:20:43;101659.09;;;21.45;65.82
26839;BME280;40088;51.214;6.786;2022-07-24T06:30:44;101646.13;;;21.45;65.95
26839;BME280;40088;51.214;6.786;2022-07-24T06:40:44;101656.31;;;21.45;65.56
26839;BME280;40088;51.214;6.786;2022-07-24T06:50:44;101645.22;;;21.45;65.90
26839;BME280;40088;51.214;6.786;2022-07-24T07:00:46;101648.91;;;21.45;65.67
26839;BME280;40088;51.214;6.786;2022-07-24T07:10:46;101638.84;;;21.44;66.11
26839;BME280;40088;51.214;6.786;2022-07-24T07:20:46;101646.97;;;21.46;66.28
26839;BME280;40088;51.214;6.786;2022-07-24T07:30:47;101651.66;;;21.45;66.12
26839;BME280;40088;51.214;6.786;2022-07-24T07:40:48;101646.97;;;21.46;66.46
26839;BME280;40088;51.214;6.786;2022-07-24T07:50:48;101655.28;;;21.46;66.21
26839;BME280;40088;51.214;6.786;2022-07-24T08:00:49;101653.56;;;21.45;66.41
26839;BME280;40088;51.214;6.786;2022-07-24T08:10:49;101658.06;;;21.46;66.14
26839;BME280;40088;51.214;6.786;2022-07-24T08:20:50;101637.81;;;21.45;66.28
26839;BME280;40088;51.214;6.786;2022-07-24T08:30:51;101635.88;;;21.46;66.57
26839;BME280;40088;51.214;6.786;2022-07-24T08:40:51;101628.59;;;21.45;66.34
26839;BME280;40088;51.214;6.786;2022-07-24T08:50:52;101620.28;;;21.45;66.26
26839;BME280;40088;51.214;6.786;2022-07-24T09:00:52;101611.97;;;21.45;66.46
26839;BME280;40088;51.214;6.786;2022-07-24T09:10:57;101608.16;;;21.46;66.44
26839;BME280;40088;51.214;6.786;2022-07-24T09:21:12;101581.47;;;21.45;66.65
26839;BME280;40088;51.214;6.786;2022-07-24T09:31:13;101585.97;;;21.46;66.64
26839;BME280;40088;51.214;6.786;2022-07-24T09:41:19;101582.34;;;21.45;66.57
26839;BME280;40088;51.214;6.786;2022-07-24T09:51:20;101577.66;;;21.46;66.48
26839;BME280;40088;51.214;6.786;2022-07-24T10:01:23;101557.38;;;21.45;66.65
26839;BME280;40088;51.214;6.786;2022-07-24T10:11:23;101548.19;;;21.45;66.44
26839;BME280;40088;51.214;6.786;2022-07-24T10:21:29;101543.53;;;21.45;66.79
26839;BME280;40088;51.214;6.786;2022-07-24T10:31:30;101537.09;;;21.45;66.88
26839;BME280;40088;51.214;6.786;2022-07-24T10:41:30;101534.31;;;21.45;66.50
26839;BME280;40088;51.214;6.786;2022-07-24T10:51:31;101517.69;;;21.45;66.74
26839;BME280;40088;51.214;6.786;2022-07-24T11:01:40;101510.25;;;21.45;66.61
26839;BME280;40088;51.214;6.786;2022-07-24T11:22:02;101497.25;;;21.46;66.70
26839;BME280;40088;51.214;6.786;2022-07-24T11:42:10;101473.13;;;21.46;66.87
26839;BME280;40088;51.214;6.786;2022-07-24T12:02:22;101459.28;;;21.46;66.57
26839;BME280;40088;51.214;6.786;2022-07-24T12:12:23;101448.19;;;21.46;66.83
26839;BME280;40088;51.214;6.786;2022-07-24T12:22:26;101422.38;;;21.46;66.44
26839;BME280;40088;51.214;6.786;2022-07-24T12:32:27;101426.84;;;21.47;66.74
26839;BME280;40088;51.214;6.786;2022-07-24T12:42:31;101414.06;;;21.46;66.40
26839;BME280;40088;51.214;6.786;2022-07-24T12:52:32;101401.03;;;21.46;66.83
26839;BME280;40088;51.214;6.786;2022-07-24T13:02:32;101389.94;;;21.46;66.64
26839;BME280;40088;51.214;6.786;2022-07-24T13:12:32;101376.94;;;21.47;66.74
26839;BME280;40088;51.214;6.786;2022-07-24T13:22:33;101354.75;;;21.47;66.70
26839;BME280;40088;51.214;6.786;2022-07-24T13:32:33;101350.06;;;21.47;66.38
26839;BME280;40088;51.214;6.786;2022-07-24T13:42:33;101335.34;;;21.47;66.45
26839;BME280;40088;51.214;6.786;2022-07-24T13:52:34;101335.13;;;21.48;66.47
26839;BME280;40088;51.214;6.786;2022-07-24T14:02:35;101304.84;;;21.47;66.80
26839;BME280;40088;51.214;6.786;2022-07-24T14:12:35;101296.53;;;21.47;66.74
26839;BME280;40088;51.214;6.786;2022-07-24T14:22:38;101274.97;;;21.49;66.74
26839;BME280;40088;51.214;6.786;2022-07-24T14:32:38;101256.63;;;21.48;66.58
26839;BME280;40088;51.214;6.786;2022-07-24T14:42:40;101247.25;;;21.49;66.61
26839;BME280;40088;51.214;6.786;2022-07-24T14:52:40;101227.81;;;21.49;66.67
26839;BME280;40088;51.214;6.786;2022-07-24T15:02:40;101218.66;;;21.48;66.90
26839;BME280;40088;51.214;6.786;2022-07-24T15:12:40;101215.66;;;21.50;66.74
26839;BME280;40088;51.214;6.786;2022-07-24T15:22:41;101191.78;;;21.49;66.82
26839;BME280;40088;51.214;6.786;2022-07-24T15:32:41;101176.84;;;21.50;66.65
26839;BME280;40088;51.214;6.786;2022-07-24T15:42:41;101169.59;;;21.49;66.67
26839;BME280;40088;51.214;6.786;2022-07-24T15:52:41;101161.09;;;21.50;66.79
26839;BME280;40088;51.214;6.786;2022-07-24T16:02:42;101150.84;;;21.51;66.58
26839;BME280;40088;51.214;6.786;2022-07-24T16:12:45;101140.59;;;21.51;66.65
26839;BME280;40088;51.214;6.786;2022-07-24T16:22:46;101124.16;;;21.50;66.59
26839;BME280;40088;51.214;6.786;2022-07-24T16:32:46;101113.06;;;21.50;66.81
26839;BME280;40088;51.214;6.786;2022-07-24T16:42:46;101101.78;;;21.51;66.82
26839;BME280;40088;51.214;6.786;2022-07-24T16:52:48;101091.53;;;21.52;66.65
26839;BME280;40088;51.214;6.786;2022-07-24T17:02:48;101071.28;;;21.51;66.64
26839;BME280;40088;51.214;6.786;2022-07-24T17:12:48;101059.34;;;21.51;66.66
26839;BME280;40088;51.214;6.786;2022-07-24T17:22:49;101059.34;;;21.51;66.75
26839;BME280;40088;51.214;6.786;2022-07-24T17:32:50;101061.03;;;21.52;66.81
26839;BME280;40088;51.214;6.786;2022-07-24T17:42:51;101051.03;;;21.51;66.87
26839;BME280;40088;51.214;6.786;2022-07-24T17:52:51;101047.16;;;21.52;66.79
26839;BME280;40088;51.214;6.786;2022-07-24T18:02:52;101041.63;;;21.52;67.15
26839;BME280;40088;51.214;6.786;2022-07-24T18:12:52;101036.94;;;21.52;67.17
26839;BME280;40088;51.214;6.786;2022-07-24T18:22:52;101032.47;;;21.51;66.97
26839;BME280;40088;51.214;6.786;2022-07-24T18:32:53;101026.91;;;21.51;67.32
26839;BME280;40088;51.214;6.786;2022-07-24T18:42:53;101026.69;;;21.53;66.98
26839;BME280;40088;51.214;6.786;2022-07-24T18:52:53;101025.84;;;21.52;67.31
26839;BME280;40088;51.214;6.786;2022-07-24T19:02:54;101027.75;;;21.52;67.01
26839;BME280;40088;51.214;6.786;2022-07-24T19:12:54;101008.13;;;21.53;67.11
26839;BME280;40088;51.214;6.786;2022-07-24T19:22:54;101021.13;;;21.53;67.31
26839;BME280;40088;51.214;6.786;2022-07-24T19:32:54;101021.13;;;21.53;67.47
26839;BME280;40088;51.214;6.786;2022-07-24T19:42:55;101017.28;;;21.54;67.26
26839;BME280;40088;51.214;6.786;2022-07-24T19:52:55;101022.84;;;21.54;67.21
26839;BME280;40088;51.214;6.786;2022-07-24T20:02:56;101019.22;;;21.53;67.34
26839;BME280;40088;51.214;6.786;2022-07-24T20:12:56;101022.84;;;21.54;67.08
26839;BME280;40088;51.214;6.786;2022-07-24T20:22:57;101022.84;;;21.54;67.46
26839;BME280;40088;51.214;6.786;2022-07-24T20:32:57;101014.50;;;21.54;67.78
26839;BME280;40088;51.214;6.786;2022-07-24T20:42:57;101006.19;;;21.54;67.23
26839;BME280;40088;51.214;6.786;2022-07-24T20:52:58;100995.94;;;21.54;67.08
26839;BME280;40088;51.214;6.786;2022-07-24T21:02:58;100986.78;;;21.54;67.23
26839;BME280;40088;51.214;6.786;2022-07-24T21:12:58;100984.88;;;21.54;67.22
26839;BME280;40088;51.214;6.786;2022-07-24T21:22:59;100980.16;;;21.55;67.51
26839;BME280;40088;51.214;6.786;2022-07-24T21:32:59;100971.00;;;21.54;67.16
26839;BME280;40088;51.214;6.786;2022-07-24T21:42:59;100970.16;;;21.54;67.26
26839;BME280;40088;51.214;6.786;2022-07-24T21:52:59;100962.47;;;21.56;67.26
26839;BME280;40088;51.214;6.786;2022-07-24T22:03:00;100953.31;;;21.55;67.54
26839;BME280;40088;51.214;6.786;2022-07-24T22:13:00;100945.84;;;21.56;67.41
26839;BME280;40088;51.214;6.786;2022-07-24T22:23:00;100936.69;;;21.55;67.57
26839;BME280;40088;51.214;6.786;2022-07-24T22:33:01;100941.34;;;21.55;67.46
26839;BME280;40088;51.214;6.786;2022-07-24T22:43:01;100931.13;;;21.55;67.36
26839;BME280;40088;51.214;6.786;2022-07-24T22:53:02;100922.81;;;21.55;67.34
26839;BME280;40088;51.214;6.786;2022-07-24T23:03:02;100916.19;;;21.56;67.30
26839;BME280;40088;51.214;6.786;2022-07-24T23:13:02;100910.63;;;21.56;67.52
26839;BME280;40088;51.214;6.786;2022-07-24T23:23:03;100898.69;;;21.56;67.16
26839;BME280;40088;51.214;6.786;2022-07-24T23:33:03;100894.00;;;21.56;67.34
26839;BME280;40088;51.214;6.786;2022-07-24T23:43:03;100888.47;;;21.56;67.33
26839;BME280;40088;51.214;6.786;2022-07-24T23:53:04;100877.38;;;21.56;67.60
